Anzahl Datensätze: 288
min. Temperatur: 13.3 °C
max. Temperatur: 24.6 °C
max. Windgeschwindigkeit: 0.0 km/h
Niederschlagsumme: 0.8 mm
| Datum |
Zeit |
Temp °C |
Feuchte % |
Taupunkt °C |
Luftdruck hPa |
Wind km/h |
Windrichtung |
Strahlung w/m² |
Niederschlag mm |
|---|---|---|---|---|---|---|---|---|---|
| 16.05.2022 | 00:04 | 17.6 | 65 | 10.9 | 1013.9 | 0.0 | N | 0 | 0.0 |
| 16.05.2022 | 00:08 | 17.6 | 65 | 10.9 | 1013.9 | 0.0 | N | 0 | 0.0 |
| 16.05.2022 | 00:14 | 17.3 | 66 | 10.9 | 1013.9 | 0.0 | N | 0 | 0.0 |
| 16.05.2022 | 00:18 | 17.2 | 67 | 11.0 | 1013.9 | 0.0 | N | 0 | 0.0 |
| 16.05.2022 | 00:24 | 17.2 | 67 | 11.0 | 1013.9 | 0.0 | N | 0 | 0.0 |
| 16.05.2022 | 00:28 | 17.0 | 68 | 11.1 | 1013.9 | 0.0 | N | 0 | 0.0 |
| 16.05.2022 | 00:34 | 16.9 | 68 | 11.0 | 1013.9 | 0.0 | N | 0 | 0.0 |
| 16.05.2022 | 00:38 | 16.8 | 68 | 10.9 | 1013.9 | 0.0 | N | 0 | 0.0 |
| 16.05.2022 | 00:44 | 16.7 | 68 | 10.8 | 1014.0 | 0.0 | N | 0 | 0.0 |
| 16.05.2022 | 00:48 | 16.7 | 68 | 10.8 | 1014.0 | 0.0 | N | 0 | 0.0 |
| 16.05.2022 | 00:54 | 16.6 | 68 | 10.7 | 1013.9 | 0.0 | N | 0 | 0.0 |
| 16.05.2022 | 00:58 | 16.6 | 69 | 10.9 | 1013.9 | 0.0 | N | 0 | 0.0 |
| 16.05.2022 | 01:04 | 16.6 | 69 | 10.9 | 1014.0 | 0.0 | NNW | 0 | 0.0 |
| 16.05.2022 | 01:08 | 16.4 | 69 | 10.7 | 1013.9 | 0.0 | NNW | 0 | 0.0 |
| 16.05.2022 | 01:14 | 16.4 | 69 | 10.7 | 1013.9 | 0.0 | NNW | 0 | 0.0 |
| 16.05.2022 | 01:18 | 16.3 | 69 | 10.6 | 1013.9 | 0.0 | NNW | 0 | 0.0 |
| 16.05.2022 | 01:24 | 16.4 | 69 | 10.7 | 1013.8 | 0.0 | NNW | 0 | 0.0 |
| 16.05.2022 | 01:28 | 16.3 | 70 | 10.8 | 1013.8 | 0.0 | N | 0 | 0.0 |
| 16.05.2022 | 01:34 | 16.2 | 70 | 10.7 | 1013.8 | 0.0 | N | 0 | 0.0 |
| 16.05.2022 | 01:38 | 16.2 | 70 | 10.7 | 1013.8 | 0.0 | N | 0 | 0.0 |
| 16.05.2022 | 01:44 | 16.3 | 70 | 10.8 | 1013.9 | 0.0 | N | 0 | 0.0 |
| 16.05.2022 | 01:48 | 16.1 | 71 | 10.8 | 1013.9 | 0.0 | N | 0 | 0.0 |
| 16.05.2022 | 01:54 | 15.8 | 72 | 10.8 | 1013.8 | 0.0 | NNW | 0 | 0.0 |
| 16.05.2022 | 01:58 | 15.8 | 71 | 10.6 | 1013.9 | 0.0 | NNW | 0 | 0.0 |
| 16.05.2022 | 02:04 | 15.8 | 72 | 10.8 | 1013.8 | 0.0 | NNW | 0 | 0.0 |
| 16.05.2022 | 02:08 | 15.8 | 72 | 10.8 | 1013.9 | 0.0 | NW | 0 | 0.0 |
| 16.05.2022 | 02:14 | 15.9 | 72 | 10.9 | 1013.9 | 0.0 | NW | 0 | 0.0 |
| 16.05.2022 | 02:18 | 15.8 | 72 | 10.8 | 1013.9 | 0.0 | NW | 0 | 0.0 |
| 16.05.2022 | 02:24 | 15.4 | 73 | 10.6 | 1013.9 | 0.0 | WNW | 0 | 0.0 |
| 16.05.2022 | 02:28 | 15.6 | 73 | 10.8 | 1013.8 | 0.0 | NW | 0 | 0.0 |
| 16.05.2022 | 02:34 | 15.7 | 72 | 10.7 | 1013.9 | 0.0 | NW | 0 | 0.0 |
| 16.05.2022 | 02:38 | 15.7 | 72 | 10.7 | 1013.8 | 0.0 | NW | 0 | 0.0 |
| 16.05.2022 | 02:44 | 15.5 | 73 | 10.7 | 1013.8 | 0.0 | NW | 0 | 0.0 |
| 16.05.2022 | 02:48 | 15.4 | 73 | 10.6 | 1013.8 | 0.0 | NW | 0 | 0.0 |
| 16.05.2022 | 02:54 | 15.1 | 75 | 10.7 | 1013.9 | 0.0 | NW | 0 | 0.0 |
| 16.05.2022 | 02:58 | 14.8 | 76 | 10.6 | 1013.9 | 0.0 | NW | 0 | 0.0 |
| 16.05.2022 | 03:04 | 14.4 | 77 | 10.4 | 1013.8 | 0.0 | WSW | 0 | 0.0 |
| 16.05.2022 | 03:08 | 14.6 | 77 | 10.6 | 1013.8 | 0.0 | WSW | 0 | 0.0 |
| 16.05.2022 | 03:14 | 14.4 | 78 | 10.6 | 1013.8 | 0.0 | WSW | 0 | 0.0 |
| 16.05.2022 | 03:18 | 14.3 | 79 | 10.7 | 1013.8 | 0.0 | WSW | 0 | 0.0 |
| 16.05.2022 | 03:24 | 14.2 | 79 | 10.6 | 1013.6 | 0.0 | WSW | 0 | 0.0 |
| 16.05.2022 | 03:28 | 14.2 | 79 | 10.6 | 1013.6 | 0.0 | WSW | 0 | 0.0 |
| 16.05.2022 | 03:34 | 14.4 | 79 | 10.8 | 1013.6 | 0.0 | S | 0 | 0.0 |
| 16.05.2022 | 03:38 | 14.4 | 78 | 10.6 | 1013.5 | 0.0 | S | 0 | 0.0 |
| 16.05.2022 | 03:44 | 14.1 | 80 | 10.7 | 1013.6 | 0.0 | S | 0 | 0.0 |
| 16.05.2022 | 03:48 | 13.8 | 81 | 10.6 | 1013.5 | 0.0 | S | 0 | 0.0 |
| 16.05.2022 | 03:54 | 13.6 | 81 | 10.4 | 1013.6 | 0.0 | SW | 0 | 0.0 |
| 16.05.2022 | 03:58 | 13.8 | 81 | 10.6 | 1013.7 | 0.0 | SW | 0 | 0.0 |
| 16.05.2022 | 04:04 | 13.8 | 80 | 10.4 | 1013.6 | 0.0 | SW | 0 | 0.0 |
| 16.05.2022 | 04:08 | 13.9 | 80 | 10.5 | 1013.8 | 0.0 | SW | 0 | 0.0 |
| 16.05.2022 | 04:14 | 13.6 | 81 | 10.4 | 1014.0 | 0.0 | SW | 0 | 0.0 |
| 16.05.2022 | 04:18 | 13.4 | 82 | 10.4 | 1013.9 | 0.0 | SW | 0 | 0.0 |
| 16.05.2022 | 04:24 | 13.4 | 82 | 10.4 | 1013.7 | 0.0 | SW | 0 | 0.0 |
| 16.05.2022 | 04:28 | 13.4 | 82 | 10.4 | 1013.7 | 0.0 | SW | 0 | 0.0 |
| 16.05.2022 | 04:34 | 13.6 | 82 | 10.6 | 1013.6 | 0.0 | SW | 12 | 0.0 |
| 16.05.2022 | 04:38 | 13.7 | 81 | 10.5 | 1013.6 | 0.0 | SW | 69 | 0.0 |
| 16.05.2022 | 04:44 | 13.7 | 81 | 10.5 | 1013.7 | 0.0 | SW | 299 | 0.0 |
| 16.05.2022 | 04:48 | 13.5 | 81 | 10.3 | 1013.7 | 0.0 | SW | 316 | 0.0 |
| 16.05.2022 | 04:54 | 13.3 | 83 | 10.5 | 1013.7 | 0.0 | WSW | 278 | 0.0 |
| 16.05.2022 | 04:58 | 13.5 | 83 | 10.7 | 1013.8 | 0.0 | WSW | 250 | 0.0 |
| 16.05.2022 | 05:04 | 13.3 | 83 | 10.5 | 1013.8 | 0.0 | W | 216 | 0.0 |
| 16.05.2022 | 05:08 | 13.3 | 83 | 10.5 | 1013.8 | 0.0 | W | 211 | 0.0 |
| 16.05.2022 | 05:14 | 13.4 | 83 | 10.6 | 1013.7 | 0.0 | W | 200 | 0.0 |
| 16.05.2022 | 05:18 | 13.6 | 82 | 10.6 | 1013.7 | 0.0 | W | 193 | 0.0 |
| 16.05.2022 | 05:24 | 13.9 | 80 | 10.5 | 1013.7 | 0.0 | W | 5 | 0.0 |
| 16.05.2022 | 05:28 | 14.0 | 80 | 10.6 | 1013.7 | 0.0 | W | 5 | 0.0 |
| 16.05.2022 | 05:34 | 14.3 | 79 | 10.7 | 1013.7 | 0.0 | W | 0 | 0.0 |
| 16.05.2022 | 05:38 | 14.6 | 78 | 10.8 | 1013.8 | 0.0 | W | 0 | 0.0 |
| 16.05.2022 | 05:44 | 14.3 | 79 | 10.7 | 1013.9 | 0.0 | W | 5 | 0.0 |
| 16.05.2022 | 05:48 | 14.2 | 80 | 10.8 | 1013.8 | 0.0 | W | 7 | 0.0 |
| 16.05.2022 | 05:54 | 14.2 | 80 | 10.8 | 1013.9 | 0.0 | W | 11 | 0.0 |
| 16.05.2022 | 05:58 | 14.3 | 80 | 10.9 | 1013.9 | 0.0 | W | 12 | 0.0 |
| 16.05.2022 | 06:04 | 14.5 | 80 | 11.1 | 1013.9 | 0.0 | W | 19 | 0.0 |
| 16.05.2022 | 06:08 | 14.4 | 80 | 11.0 | 1013.9 | 0.0 | W | 23 | 0.0 |
| 16.05.2022 | 06:14 | 14.2 | 80 | 10.8 | 1013.8 | 0.0 | W | 32 | 0.0 |
| 16.05.2022 | 06:18 | 14.1 | 81 | 10.9 | 1013.9 | 0.0 | W | 35 | 0.0 |
| 16.05.2022 | 06:24 | 14.1 | 82 | 11.1 | 1014.0 | 0.0 | W | 28 | 0.0 |
| 16.05.2022 | 06:28 | 14.2 | 82 | 11.2 | 1014.0 | 0.0 | W | 25 | 0.0 |
| 16.05.2022 | 06:34 | 14.4 | 82 | 11.4 | 1014.0 | 0.0 | W | 30 | 0.0 |
| 16.05.2022 | 06:38 | 14.6 | 82 | 11.6 | 1014.0 | 0.0 | W | 35 | 0.0 |
| 16.05.2022 | 06:44 | 14.6 | 82 | 11.6 | 1013.9 | 0.0 | W | 39 | 0.0 |
| 16.05.2022 | 06:48 | 14.7 | 82 | 11.7 | 1013.9 | 0.0 | W | 47 | 0.0 |
| 16.05.2022 | 06:54 | 14.9 | 82 | 11.9 | 1014.0 | 0.0 | W | 46 | 0.0 |
| 16.05.2022 | 06:58 | 14.9 | 82 | 11.9 | 1014.0 | 0.0 | W | 46 | 0.0 |
| 16.05.2022 | 07:04 | 15.0 | 82 | 12.0 | 1014.0 | 0.0 | W | 54 | 0.0 |
| 16.05.2022 | 07:08 | 15.1 | 82 | 12.0 | 1014.1 | 0.0 | W | 58 | 0.0 |
| 16.05.2022 | 07:14 | 15.3 | 82 | 12.2 | 1014.0 | 0.0 | W | 60 | 0.0 |
| 16.05.2022 | 07:18 | 15.4 | 81 | 12.2 | 1014.1 | 0.0 | W | 70 | 0.0 |
| 16.05.2022 | 07:24 | 15.6 | 82 | 12.5 | 1014.1 | 0.0 | W | 90 | 0.0 |
| 16.05.2022 | 07:28 | 15.8 | 82 | 12.7 | 1014.2 | 0.0 | W | 100 | 0.0 |
| 16.05.2022 | 07:34 | 16.1 | 80 | 12.6 | 1014.3 | 0.0 | W | 113 | 0.0 |
| 16.05.2022 | 07:38 | 16.3 | 81 | 13.0 | 1014.3 | 0.0 | W | 116 | 0.0 |
| 16.05.2022 | 07:44 | 16.6 | 79 | 12.9 | 1014.5 | 0.0 | W | 137 | 0.0 |
| 16.05.2022 | 07:48 | 16.8 | 79 | 13.1 | 1014.5 | 0.0 | W | 206 | 0.0 |
| 16.05.2022 | 07:54 | 17.2 | 79 | 13.5 | 1014.6 | 0.0 | W | 248 | 0.0 |
| 16.05.2022 | 07:58 | 17.7 | 78 | 13.8 | 1014.5 | 0.0 | W | 265 | 0.0 |
| 16.05.2022 | 08:04 | 18.2 | 77 | 14.1 | 1014.6 | 0.0 | WSW | 281 | 0.0 |
| 16.05.2022 | 08:08 | 18.6 | 76 | 14.3 | 1014.7 | 0.0 | WNW | 301 | 0.0 |
| 16.05.2022 | 08:14 | 19.2 | 75 | 14.7 | 1014.7 | 0.0 | W | 345 | 0.0 |
| 16.05.2022 | 08:18 | 19.6 | 73 | 14.6 | 1014.7 | 0.0 | WSW | 290 | 0.0 |
| 16.05.2022 | 08:24 | 20.0 | 72 | 14.8 | 1014.7 | 0.0 | WSW | 134 | 0.0 |
| 16.05.2022 | 08:28 | 19.9 | 72 | 14.7 | 1014.8 | 0.0 | WSW | 121 | 0.0 |
| 16.05.2022 | 08:34 | 19.9 | 73 | 14.9 | 1014.9 | 0.0 | WSW | 230 | 0.0 |
| 16.05.2022 | 08:38 | 20.1 | 72 | 14.9 | 1015.0 | 0.0 | S | 278 | 0.0 |
| 16.05.2022 | 08:44 | 20.4 | 71 | 15.0 | 1015.0 | 0.0 | SW | 381 | 0.0 |
| 16.05.2022 | 08:48 | 20.4 | 71 | 15.0 | 1015.1 | 0.0 | SSW | 127 | 0.0 |
| 16.05.2022 | 08:54 | 20.3 | 72 | 15.1 | 1015.1 | 0.0 | SW | 253 | 0.0 |
| 16.05.2022 | 08:58 | 20.3 | 73 | 15.3 | 1015.1 | 0.0 | S | 316 | 0.0 |
| 16.05.2022 | 09:04 | 21.1 | 70 | 15.4 | 1015.1 | 0.0 | SW | 323 | 0.0 |
| 16.05.2022 | 09:08 | 21.2 | 70 | 15.5 | 1015.2 | 0.0 | SW | 339 | 0.0 |
| 16.05.2022 | 09:14 | 21.4 | 69 | 15.5 | 1015.2 | 0.0 | SW | 248 | 0.0 |
| 16.05.2022 | 09:18 | 21.3 | 70 | 15.6 | 1015.3 | 0.0 | SW | 229 | 0.0 |
| 16.05.2022 | 09:24 | 21.2 | 70 | 15.5 | 1015.3 | 0.0 | SW | 221 | 0.0 |
| 16.05.2022 | 09:28 | 21.2 | 69 | 15.3 | 1015.4 | 0.0 | SSW | 206 | 0.0 |
| 16.05.2022 | 09:34 | 21.1 | 70 | 15.4 | 1015.4 | 0.0 | W | 213 | 0.0 |
| 16.05.2022 | 09:38 | 21.0 | 71 | 15.5 | 1015.4 | 0.0 | SSW | 232 | 0.0 |
| 16.05.2022 | 09:44 | 21.1 | 70 | 15.4 | 1015.5 | 0.0 | SSW | 297 | 0.0 |
| 16.05.2022 | 09:48 | 21.2 | 70 | 15.5 | 1015.5 | 0.0 | SSW | 346 | 0.0 |
| 16.05.2022 | 09:54 | 21.3 | 70 | 15.6 | 1015.6 | 0.0 | WSW | 218 | 0.0 |
| 16.05.2022 | 09:58 | 21.1 | 70 | 15.4 | 1015.6 | 0.0 | SSW | 318 | 0.0 |
| 16.05.2022 | 10:04 | 21.8 | 69 | 15.9 | 1015.7 | 0.0 | S | 679 | 0.0 |
| 16.05.2022 | 10:08 | 22.2 | 68 | 16.0 | 1015.8 | 0.0 | SW | 659 | 0.0 |
| 16.05.2022 | 10:14 | 22.5 | 65 | 15.6 | 1015.7 | 0.0 | SW | 360 | 0.0 |
| 16.05.2022 | 10:18 | 22.6 | 66 | 15.9 | 1015.7 | 0.0 | S | 522 | 0.0 |
| 16.05.2022 | 10:24 | 22.7 | 65 | 15.8 | 1015.8 | 0.0 | SSW | 424 | 0.0 |
| 16.05.2022 | 10:28 | 22.8 | 66 | 16.1 | 1015.8 | 0.0 | W | 671 | 0.0 |
| 16.05.2022 | 10:34 | 23.2 | 64 | 16.0 | 1015.8 | 0.0 | WSW | 642 | 0.0 |
| 16.05.2022 | 10:40 | 23.5 | 62 | 15.8 | 1015.9 | 0.0 | SSW | 675 | 0.0 |
| 16.05.2022 | 10:44 | 23.7 | 63 | 16.2 | 1015.9 | 0.0 | S | 682 | 0.0 |
| 16.05.2022 | 10:48 | 23.9 | 63 | 16.4 | 1016.0 | 0.0 | SSW | 682 | 0.0 |
| 16.05.2022 | 10:54 | 23.8 | 63 | 16.3 | 1015.9 | 0.0 | S | 715 | 0.0 |
| 16.05.2022 | 10:58 | 24.2 | 63 | 16.7 | 1016.0 | 0.0 | SW | 708 | 0.0 |
| 16.05.2022 | 11:04 | 24.2 | 59 | 15.7 | 1016.2 | 0.0 | SW | 772 | 0.0 |
| 16.05.2022 | 11:08 | 24.4 | 57 | 15.3 | 1016.3 | 0.0 | SSW | 838 | 0.0 |
| 16.05.2022 | 11:14 | 24.2 | 59 | 15.7 | 1016.2 | 0.0 | SW | 737 | 0.0 |
| 16.05.2022 | 11:18 | 24.5 | 60 | 16.2 | 1016.2 | 0.0 | SSW | 872 | 0.0 |
| 16.05.2022 | 11:24 | 24.6 | 58 | 15.8 | 1016.3 | 0.0 | W | 575 | 0.0 |
| 16.05.2022 | 11:28 | 24.3 | 56 | 15.0 | 1016.4 | 0.0 | SW | 339 | 0.0 |
| 16.05.2022 | 11:34 | 23.8 | 57 | 14.8 | 1016.5 | 0.0 | WNW | 278 | 0.0 |
| 16.05.2022 | 11:38 | 23.6 | 58 | 14.9 | 1016.6 | 0.0 | SSW | 279 | 0.0 |
| 16.05.2022 | 11:44 | 23.6 | 59 | 15.1 | 1016.8 | 0.0 | WNW | 229 | 0.0 |
| 16.05.2022 | 11:48 | 23.5 | 59 | 15.0 | 1016.9 | 0.0 | WSW | 206 | 0.0 |
| 16.05.2022 | 11:54 | 23.3 | 61 | 15.4 | 1017.0 | 0.0 | WSW | 181 | 0.0 |
| 16.05.2022 | 11:58 | 23.1 | 61 | 15.2 | 1017.1 | 0.0 | W | 230 | 0.0 |
| 16.05.2022 | 12:04 | 22.7 | 62 | 15.0 | 1017.3 | 0.0 | WSW | 325 | 0.0 |
| 16.05.2022 | 12:08 | 22.7 | 62 | 15.0 | 1017.4 | 0.0 | SSW | 378 | 0.0 |
| 16.05.2022 | 12:14 | 22.5 | 62 | 14.9 | 1017.5 | 0.0 | SW | 279 | 0.0 |
| 16.05.2022 | 12:18 | 22.2 | 62 | 14.6 | 1017.6 | 0.0 | W | 204 | 0.0 |
| 16.05.2022 | 12:24 | 21.7 | 64 | 14.6 | 1017.6 | 0.0 | SW | 107 | 0.0 |
| 16.05.2022 | 12:28 | 21.3 | 65 | 14.5 | 1017.8 | 0.0 | SW | 76 | 0.0 |
| 16.05.2022 | 12:34 | 20.8 | 67 | 14.4 | 1018.0 | 0.0 | W | 37 | 0.0 |
| 16.05.2022 | 12:38 | 20.4 | 68 | 14.3 | 1018.2 | 0.0 | SW | 33 | 0.0 |
| 16.05.2022 | 12:44 | 19.7 | 73 | 14.7 | 1018.3 | 0.0 | SW | 39 | 0.0 |
| 16.05.2022 | 12:48 | 18.6 | 79 | 14.9 | 1018.5 | 0.0 | SW | 47 | 0.0 |
| 16.05.2022 | 12:54 | 17.4 | 84 | 14.7 | 1018.5 | 0.0 | WSW | 79 | 0.0 |
| 16.05.2022 | 12:58 | 17.2 | 86 | 14.8 | 1018.4 | 0.0 | W | 97 | 0.0 |
| 16.05.2022 | 13:04 | 17.1 | 88 | 15.1 | 1018.4 | 0.0 | SW | 113 | 0.2 |
| 16.05.2022 | 13:08 | 17.1 | 89 | 15.3 | 1018.3 | 0.0 | WSW | 102 | 0.4 |
| 16.05.2022 | 13:14 | 17.0 | 89 | 15.2 | 1018.1 | 0.0 | SW | 172 | 0.4 |
| 16.05.2022 | 13:18 | 17.1 | 89 | 15.3 | 1018.2 | 0.0 | WSW | 304 | 0.6 |
| 16.05.2022 | 13:24 | 17.4 | 90 | 15.7 | 1018.2 | 0.0 | SSW | 399 | 0.8 |
| 16.05.2022 | 13:28 | 17.8 | 90 | 16.1 | 1018.3 | 0.0 | SW | 397 | 0.8 |
| 16.05.2022 | 13:34 | 18.1 | 89 | 16.3 | 1018.3 | 0.0 | SW | 359 | 0.8 |
| 16.05.2022 | 13:38 | 18.3 | 88 | 16.3 | 1018.3 | 0.0 | WSW | 436 | 0.8 |
| 16.05.2022 | 13:44 | 18.5 | 88 | 16.5 | 1018.3 | 0.0 | SW | 401 | 0.8 |
| 16.05.2022 | 13:48 | 18.6 | 87 | 16.4 | 1018.2 | 0.0 | WSW | 343 | 0.8 |
| 16.05.2022 | 13:54 | 18.3 | 86 | 15.9 | 1018.0 | 0.0 | W | 359 | 0.8 |
| 16.05.2022 | 13:58 | 18.3 | 87 | 16.1 | 1017.9 | 0.0 | SW | 520 | 0.8 |
| 16.05.2022 | 14:04 | 18.7 | 86 | 16.3 | 1017.8 | 0.0 | WSW | 468 | 0.8 |
| 16.05.2022 | 14:08 | 18.8 | 87 | 16.6 | 1017.7 | 0.0 | WNW | 826 | 0.8 |
| 16.05.2022 | 14:14 | 19.1 | 84 | 16.3 | 1017.7 | 0.0 | WNW | 396 | 0.8 |
| 16.05.2022 | 14:18 | 19.1 | 85 | 16.5 | 1017.7 | 0.0 | W | 388 | 0.8 |
| 16.05.2022 | 14:24 | 19.0 | 84 | 16.2 | 1017.7 | 0.0 | SSW | 461 | 0.8 |
| 16.05.2022 | 14:28 | 19.5 | 84 | 16.7 | 1017.7 | 0.0 | SW | 673 | 0.8 |
| 16.05.2022 | 14:34 | 20.6 | 81 | 17.2 | 1017.6 | 0.0 | WSW | 1100 | 0.8 |
| 16.05.2022 | 14:38 | 20.8 | 80 | 17.2 | 1017.6 | 0.0 | SW | 970 | 0.8 |
| 16.05.2022 | 14:44 | 21.3 | 78 | 17.3 | 1017.5 | 0.0 | WSW | 912 | 0.8 |
| 16.05.2022 | 14:48 | 21.4 | 77 | 17.2 | 1017.5 | 0.0 | W | 875 | 0.8 |
| 16.05.2022 | 14:54 | 21.6 | 76 | 17.2 | 1017.4 | 0.0 | W | 867 | 0.8 |
| 16.05.2022 | 14:58 | 21.5 | 74 | 16.7 | 1017.5 | 0.0 | W | 872 | 0.8 |
| 16.05.2022 | 15:04 | 21.8 | 75 | 17.2 | 1017.5 | 0.0 | WNW | 1018 | 0.8 |
| 16.05.2022 | 15:08 | 21.6 | 73 | 16.6 | 1017.5 | 0.0 | W | 369 | 0.8 |
| 16.05.2022 | 15:14 | 21.2 | 76 | 16.8 | 1017.5 | 0.0 | S | 304 | 0.8 |
| 16.05.2022 | 15:18 | 21.2 | 76 | 16.8 | 1017.5 | 0.0 | W | 417 | 0.8 |
| 16.05.2022 | 15:24 | 21.2 | 77 | 17.0 | 1017.4 | 0.0 | SSW | 1137 | 0.8 |
| 16.05.2022 | 15:28 | 21.9 | 76 | 17.5 | 1017.3 | 0.0 | WSW | 485 | 0.8 |
| 16.05.2022 | 15:34 | 21.6 | 73 | 16.6 | 1017.3 | 0.0 | WSW | 288 | 0.8 |
| 16.05.2022 | 15:38 | 21.1 | 75 | 16.5 | 1017.3 | 0.0 | W | 360 | 0.8 |
| 16.05.2022 | 15:44 | 21.1 | 75 | 16.5 | 1017.3 | 0.0 | SSW | 387 | 0.8 |
| 16.05.2022 | 15:48 | 21.4 | 75 | 16.8 | 1017.3 | 0.0 | SW | 387 | 0.8 |
| 16.05.2022 | 15:54 | 22.0 | 72 | 16.7 | 1017.2 | 0.0 | SSW | 970 | 0.8 |
| 16.05.2022 | 15:58 | 22.2 | 72 | 16.9 | 1017.2 | 0.0 | SW | 503 | 0.8 |
| 16.05.2022 | 16:04 | 22.1 | 71 | 16.6 | 1017.2 | 0.0 | W | 503 | 0.8 |
| 16.05.2022 | 16:08 | 21.9 | 71 | 16.4 | 1017.1 | 0.0 | W | 728 | 0.8 |
| 16.05.2022 | 16:14 | 22.3 | 70 | 16.6 | 1017.1 | 0.0 | W | 689 | 0.8 |
| 16.05.2022 | 16:18 | 22.3 | 71 | 16.8 | 1017.2 | 0.0 | W | 816 | 0.8 |
| 16.05.2022 | 16:24 | 21.9 | 70 | 16.2 | 1017.2 | 0.0 | WNW | 248 | 0.8 |
| 16.05.2022 | 16:28 | 21.7 | 71 | 16.2 | 1017.3 | 0.0 | W | 738 | 0.8 |
| 16.05.2022 | 16:34 | 21.9 | 71 | 16.4 | 1017.3 | 0.0 | WSW | 281 | 0.8 |
| 16.05.2022 | 16:38 | 21.7 | 71 | 16.2 | 1017.3 | 0.0 | W | 383 | 0.8 |
| 16.05.2022 | 16:44 | 21.6 | 72 | 16.3 | 1017.2 | 0.0 | SW | 248 | 0.8 |
| 16.05.2022 | 16:48 | 21.3 | 72 | 16.0 | 1017.3 | 0.0 | W | 230 | 0.8 |
| 16.05.2022 | 16:54 | 21.1 | 73 | 16.1 | 1017.4 | 0.0 | W | 292 | 0.8 |
| 16.05.2022 | 16:58 | 21.1 | 74 | 16.3 | 1017.3 | 0.0 | WSW | 343 | 0.8 |
| 16.05.2022 | 17:04 | 21.3 | 73 | 16.3 | 1017.2 | 0.0 | W | 513 | 0.8 |
| 16.05.2022 | 17:08 | 21.8 | 73 | 16.7 | 1017.1 | 0.0 | NNO | 654 | 0.8 |
| 16.05.2022 | 17:14 | 21.9 | 70 | 16.2 | 1017.1 | 0.0 | WSW | 633 | 0.8 |
| 16.05.2022 | 17:18 | 22.1 | 71 | 16.6 | 1017.1 | 0.0 | WNW | 281 | 0.8 |
| 16.05.2022 | 17:24 | 21.8 | 69 | 15.9 | 1017.0 | 0.0 | SW | 645 | 0.8 |
| 16.05.2022 | 17:28 | 21.7 | 70 | 16.0 | 1017.1 | 0.0 | W | 357 | 0.8 |
| 16.05.2022 | 17:34 | 21.9 | 71 | 16.4 | 1016.9 | 0.0 | SW | 612 | 0.8 |
| 16.05.2022 | 17:38 | 22.3 | 70 | 16.6 | 1017.0 | 0.0 | W | 533 | 0.8 |
| 16.05.2022 | 17:44 | 22.4 | 70 | 16.7 | 1017.0 | 0.0 | WSW | 487 | 0.8 |
| 16.05.2022 | 17:48 | 22.4 | 69 | 16.4 | 1016.9 | 0.0 | W | 478 | 0.8 |
| 16.05.2022 | 17:54 | 22.2 | 68 | 16.0 | 1017.1 | 0.0 | WNW | 385 | 0.8 |
| 16.05.2022 | 17:58 | 22.4 | 69 | 16.4 | 1017.1 | 0.0 | W | 434 | 0.8 |
| 16.05.2022 | 18:04 | 22.4 | 67 | 16.0 | 1017.0 | 0.0 | W | 422 | 0.8 |
| 16.05.2022 | 18:08 | 22.6 | 65 | 15.7 | 1017.0 | 0.0 | WSW | 461 | 0.8 |
| 16.05.2022 | 18:14 | 22.1 | 66 | 15.4 | 1017.0 | 0.0 | SW | 146 | 0.8 |
| 16.05.2022 | 18:18 | 21.8 | 65 | 14.9 | 1017.0 | 0.0 | WNW | 193 | 0.8 |
| 16.05.2022 | 18:24 | 21.7 | 65 | 14.8 | 1017.1 | 0.0 | W | 162 | 0.8 |
| 16.05.2022 | 18:28 | 21.7 | 66 | 15.1 | 1017.1 | 0.0 | SW | 146 | 0.8 |
| 16.05.2022 | 18:34 | 21.6 | 68 | 15.4 | 1017.2 | 0.0 | S | 158 | 0.8 |
| 16.05.2022 | 18:38 | 21.5 | 68 | 15.3 | 1017.2 | 0.0 | W | 204 | 0.8 |
| 16.05.2022 | 18:44 | 21.7 | 68 | 15.5 | 1017.1 | 0.0 | W | 213 | 0.8 |
| 16.05.2022 | 18:48 | 21.6 | 66 | 15.0 | 1017.1 | 0.0 | WNW | 186 | 0.8 |
| 16.05.2022 | 18:54 | 21.8 | 67 | 15.4 | 1017.0 | 0.0 | WSW | 197 | 0.8 |
| 16.05.2022 | 18:58 | 21.8 | 67 | 15.4 | 1017.1 | 0.0 | SW | 186 | 0.8 |
| 16.05.2022 | 19:04 | 21.8 | 65 | 14.9 | 1017.1 | 0.0 | SW | 192 | 0.8 |
| 16.05.2022 | 19:08 | 22.0 | 65 | 15.1 | 1017.1 | 0.0 | WNW | 316 | 0.8 |
| 16.05.2022 | 19:14 | 22.3 | 65 | 15.4 | 1017.1 | 0.0 | WSW | 172 | 0.8 |
| 16.05.2022 | 19:18 | 22.3 | 66 | 15.6 | 1017.1 | 0.0 | SW | 274 | 0.8 |
| 16.05.2022 | 19:24 | 22.3 | 66 | 15.6 | 1017.2 | 0.0 | WNW | 258 | 0.8 |
| 16.05.2022 | 19:28 | 22.6 | 65 | 15.7 | 1017.3 | 0.0 | SW | 250 | 0.8 |
| 16.05.2022 | 19:34 | 22.5 | 65 | 15.6 | 1017.4 | 0.0 | WSW | 239 | 0.8 |
| 16.05.2022 | 19:38 | 22.3 | 66 | 15.6 | 1017.6 | 0.0 | WSW | 209 | 0.8 |
| 16.05.2022 | 19:44 | 22.1 | 66 | 15.4 | 1017.6 | 0.0 | WSW | 174 | 0.8 |
| 16.05.2022 | 19:48 | 22.1 | 66 | 15.4 | 1017.6 | 0.0 | WSW | 165 | 0.8 |
| 16.05.2022 | 19:54 | 21.9 | 67 | 15.5 | 1017.7 | 0.0 | W | 127 | 0.8 |
| 16.05.2022 | 19:58 | 21.8 | 67 | 15.4 | 1017.7 | 0.0 | SW | 130 | 0.8 |
| 16.05.2022 | 20:04 | 21.7 | 67 | 15.3 | 1017.8 | 0.0 | WSW | 98 | 0.8 |
| 16.05.2022 | 20:08 | 21.7 | 68 | 15.5 | 1017.8 | 0.0 | WSW | 91 | 0.8 |
| 16.05.2022 | 20:14 | 21.5 | 69 | 15.6 | 1017.9 | 0.0 | W | 83 | 0.8 |
| 16.05.2022 | 20:18 | 21.4 | 69 | 15.5 | 1018.0 | 0.0 | W | 76 | 0.8 |
| 16.05.2022 | 20:24 | 21.3 | 69 | 15.4 | 1018.1 | 0.0 | WNW | 60 | 0.8 |
| 16.05.2022 | 20:28 | 21.3 | 68 | 15.2 | 1018.2 | 0.0 | WNW | 44 | 0.8 |
| 16.05.2022 | 20:34 | 21.1 | 68 | 15.0 | 1018.3 | 0.0 | WNW | 35 | 0.8 |
| 16.05.2022 | 20:38 | 20.9 | 68 | 14.8 | 1018.4 | 0.0 | NW | 28 | 0.8 |
| 16.05.2022 | 20:44 | 20.6 | 70 | 14.9 | 1018.5 | 0.0 | WNW | 25 | 0.8 |
| 16.05.2022 | 20:48 | 20.4 | 71 | 15.0 | 1018.5 | 0.0 | WNW | 23 | 0.8 |
| 16.05.2022 | 20:54 | 20.3 | 71 | 14.9 | 1018.6 | 0.0 | NW | 16 | 0.8 |
| 16.05.2022 | 20:58 | 20.2 | 72 | 15.0 | 1018.6 | 0.0 | NW | 12 | 0.8 |
| 16.05.2022 | 21:04 | 19.9 | 73 | 14.9 | 1018.7 | 0.0 | NW | 7 | 0.8 |
| 16.05.2022 | 21:08 | 19.7 | 74 | 14.9 | 1018.8 | 0.0 | NNW | 5 | 0.8 |
| 16.05.2022 | 21:14 | 19.3 | 75 | 14.8 | 1018.8 | 0.0 | NNW | 0 | 0.8 |
| 16.05.2022 | 21:18 | 19.0 | 76 | 14.7 | 1018.9 | 0.0 | NNW | 0 | 0.8 |
| 16.05.2022 | 21:24 | 18.7 | 78 | 14.8 | 1019.0 | 0.0 | NNW | 0 | 0.8 |
| 16.05.2022 | 21:28 | 18.4 | 79 | 14.7 | 1019.0 | 0.0 | NNW | 0 | 0.8 |
| 16.05.2022 | 21:34 | 18.2 | 79 | 14.5 | 1019.2 | 0.0 | NNW | 0 | 0.8 |
| 16.05.2022 | 21:38 | 18.1 | 80 | 14.6 | 1019.1 | 0.0 | NNW | 0 | 0.8 |
| 16.05.2022 | 21:44 | 17.8 | 81 | 14.5 | 1019.2 | 0.0 | NNW | 0 | 0.8 |
| 16.05.2022 | 21:48 | 17.6 | 81 | 14.3 | 1019.2 | 0.0 | NNW | 0 | 0.8 |
| 16.05.2022 | 21:54 | 17.4 | 82 | 14.3 | 1019.3 | 0.0 | NNW | 0 | 0.8 |
| 16.05.2022 | 21:58 | 17.2 | 82 | 14.1 | 1019.3 | 0.0 | NNW | 0 | 0.8 |
| 16.05.2022 | 22:04 | 16.8 | 84 | 14.1 | 1019.4 | 0.0 | NNW | 0 | 0.8 |
| 16.05.2022 | 22:08 | 16.8 | 84 | 14.1 | 1019.4 | 0.0 | NNW | 0 | 0.8 |
| 16.05.2022 | 22:14 | 16.8 | 84 | 14.1 | 1019.4 | 0.0 | NNW | 0 | 0.8 |
| 16.05.2022 | 22:18 | 16.8 | 84 | 14.1 | 1019.4 | 0.0 | NNW | 0 | 0.8 |
| 16.05.2022 | 22:24 | 16.4 | 85 | 13.9 | 1019.5 | 0.0 | NNW | 0 | 0.8 |
| 16.05.2022 | 22:28 | 16.2 | 86 | 13.9 | 1019.5 | 0.0 | NNW | 0 | 0.8 |
| 16.05.2022 | 22:34 | 16.1 | 86 | 13.8 | 1019.5 | 0.0 | NNW | 0 | 0.8 |
| 16.05.2022 | 22:38 | 16.1 | 87 | 13.9 | 1019.5 | 0.0 | WNW | 0 | 0.8 |
| 16.05.2022 | 22:44 | 16.0 | 87 | 13.8 | 1019.6 | 0.0 | WNW | 0 | 0.8 |
| 16.05.2022 | 22:48 | 15.8 | 87 | 13.6 | 1019.6 | 0.0 | WNW | 0 | 0.8 |
| 16.05.2022 | 22:54 | 15.8 | 87 | 13.6 | 1019.6 | 0.0 | WNW | 0 | 0.8 |
| 16.05.2022 | 22:58 | 15.8 | 87 | 13.6 | 1019.6 | 0.0 | WNW | 0 | 0.8 |
| 16.05.2022 | 23:04 | 15.7 | 87 | 13.5 | 1019.6 | 0.0 | WNW | 0 | 0.8 |
| 16.05.2022 | 23:08 | 15.6 | 88 | 13.6 | 1019.6 | 0.0 | WNW | 0 | 0.8 |
| 16.05.2022 | 23:14 | 15.4 | 88 | 13.4 | 1019.6 | 0.0 | WNW | 0 | 0.8 |
| 16.05.2022 | 23:18 | 15.4 | 88 | 13.4 | 1019.7 | 0.0 | WNW | 0 | 0.8 |
| 16.05.2022 | 23:24 | 15.4 | 88 | 13.4 | 1019.7 | 0.0 | WNW | 0 | 0.8 |
| 16.05.2022 | 23:28 | 15.3 | 88 | 13.3 | 1019.7 | 0.0 | WNW | 0 | 0.8 |
| 16.05.2022 | 23:34 | 15.3 | 88 | 13.3 | 1019.6 | 0.0 | WNW | 0 | 0.8 |
| 16.05.2022 | 23:38 | 15.2 | 89 | 13.4 | 1019.6 | 0.0 | WNW | 0 | 0.8 |
| 16.05.2022 | 23:44 | 15.2 | 89 | 13.4 | 1019.6 | 0.0 | WNW | 0 | 0.8 |
| 16.05.2022 | 23:48 | 15.1 | 89 | 13.3 | 1019.6 | 0.0 | WNW | 0 | 0.8 |
| 16.05.2022 | 23:54 | 15.1 | 89 | 13.3 | 1019.7 | 0.0 | WNW | 0 | 0.8 |
| 16.05.2022 | 23:58 | 15.0 | 89 | 13.2 | 1019.7 | 0.0 | W | 0 | 0.8 |